createdAt,value
2018-01-04T00:01:16.265Z,0.00
2018-01-04T00:02:16.223Z,0.00
2018-01-04T00:04:09.050Z,0.00
2018-01-04T00:05:09.021Z,0.00
2018-01-04T00:07:01.865Z,0.00
2018-01-04T00:08:01.828Z,0.00
2018-01-04T00:09:54.653Z,0.00
2018-01-04T00:10:54.626Z,0.00
2018-01-04T00:12:47.475Z,0.00
2018-01-04T00:13:47.429Z,0.00
2018-01-04T00:15:40.261Z,0.00
2018-01-04T00:16:40.234Z,0.00
2018-01-04T00:18:33.076Z,0.00
2018-01-04T00:19:33.037Z,0.00
2018-01-04T00:21:25.862Z,0.00
2018-01-04T00:22:25.839Z,0.00
2018-01-04T00:24:18.674Z,0.00
2018-01-04T00:25:18.640Z,0.00
2018-01-04T00:27:11.460Z,0.00
2018-01-04T00:28:11.442Z,0.00
2018-01-04T00:30:04.277Z,0.00
2018-01-04T00:31:04.240Z,0.00
2018-01-04T00:32:57.065Z,0.00
2018-01-04T00:33:57.039Z,0.00
2018-01-04T00:35:49.878Z,0.00
2018-01-04T00:36:49.842Z,0.00
2018-01-04T00:38:42.672Z,0.00
2018-01-04T00:39:42.649Z,0.00
2018-01-04T00:41:35.486Z,0.00
2018-01-04T00:42:35.447Z,0.00
2018-01-04T00:44:28.270Z,0.00
2018-01-04T00:45:28.246Z,0.00
2018-01-04T00:47:21.085Z,0.00
2018-01-04T00:48:21.048Z,0.00
2018-01-04T00:50:13.876Z,0.00
2018-01-04T00:51:13.848Z,0.00
2018-01-04T00:53:06.694Z,0.00
2018-01-04T00:54:06.657Z,0.00
2018-01-04T00:55:59.478Z,0.00
2018-01-04T00:56:59.456Z,0.00
2018-01-04T00:58:52.300Z,0.00
2018-01-04T00:59:52.259Z,0.00
2018-01-04T01:01:45.088Z,0.00
2018-01-04T01:02:45.065Z,0.00
2018-01-04T01:04:37.909Z,0.00
2018-01-04T01:05:37.873Z,0.00
2018-01-04T01:07:30.767Z,0.00
2018-01-04T01:08:30.741Z,0.00
2018-01-04T01:10:23.592Z,0.00
2018-01-04T01:11:23.553Z,0.00
2018-01-04T01:13:16.376Z,0.00
2018-01-04T01:14:16.356Z,0.00
2018-01-04T01:16:09.215Z,0.00
2018-01-04T01:17:09.160Z,0.00
2018-01-04T01:19:01.992Z,0.00
2018-01-04T01:20:01.963Z,0.00
2018-01-04T01:21:54.803Z,0.00
2018-01-04T01:22:54.763Z,0.00
2018-01-04T01:24:47.595Z,0.00
2018-01-04T01:25:47.568Z,0.00
2018-01-04T01:27:40.412Z,0.00
2018-01-04T01:28:40.374Z,0.00
2018-01-04T01:30:33.194Z,0.00
2018-01-04T01:31:33.175Z,0.00
2018-01-04T01:33:26.021Z,0.00
2018-01-04T01:34:25.976Z,0.00
2018-01-04T01:36:18.805Z,0.00
2018-01-04T01:37:18.782Z,0.00
2018-01-04T01:39:11.627Z,0.00
2018-01-04T01:40:11.587Z,0.00
2018-01-04T01:42:04.431Z,0.00
2018-01-04T01:43:04.388Z,0.00
2018-01-04T01:44:57.339Z,0.00
2018-01-04T01:45:57.187Z,0.00
2018-01-04T01:47:50.009Z,0.00
2018-01-04T01:48:49.986Z,0.00
2018-01-04T01:50:42.830Z,0.00
2018-01-04T01:51:42.792Z,0.00
2018-01-04T01:53:35.614Z,0.00
2018-01-04T01:54:35.598Z,0.00
2018-01-04T01:56:28.432Z,0.00
2018-01-04T01:57:28.394Z,0.00
2018-01-04T01:59:21.215Z,0.00
2018-01-04T02:00:21.195Z,0.00
2018-01-04T02:02:14.041Z,0.00
2018-01-04T02:03:14.000Z,0.00
2018-01-04T02:05:06.829Z,0.00
2018-01-04T02:06:06.804Z,0.00
2018-01-04T02:07:59.645Z,0.00
2018-01-04T02:08:59.610Z,0.00
2018-01-04T02:10:52.433Z,0.00
2018-01-04T02:11:52.405Z,0.00
2018-01-04T02:13:45.249Z,0.00
2018-01-04T02:14:45.206Z,0.00
2018-01-04T02:16:38.033Z,0.00
2018-01-04T02:17:38.005Z,0.00
2018-01-04T02:19:30.857Z,0.00
2018-01-04T02:20:30.810Z,0.00
2018-01-04T02:22:23.631Z,0.00
2018-01-04T02:23:23.605Z,0.00
2018-01-04T02:25:16.449Z,0.00
2018-01-04T02:26:16.407Z,0.00
2018-01-04T02:28:09.237Z,0.00
2018-01-04T02:29:09.216Z,0.00
2018-01-04T02:31:02.052Z,0.00
2018-01-04T02:32:02.014Z,0.00
2018-01-04T02:33:54.837Z,0.00
2018-01-04T02:34:54.812Z,0.00
2018-01-04T02:36:47.659Z,0.00
2018-01-04T02:37:47.616Z,0.00
2018-01-04T02:39:40.442Z,0.00
2018-01-04T02:40:40.416Z,0.00
2018-01-04T02:42:33.264Z,0.00
2018-01-04T02:43:33.217Z,0.00
2018-01-04T02:45:26.042Z,0.00
2018-01-04T02:46:26.016Z,0.00
2018-01-04T02:48:18.860Z,0.00
2018-01-04T02:49:18.814Z,0.00
2018-01-04T02:51:11.641Z,0.00
2018-01-04T02:52:11.614Z,0.00
2018-01-04T02:54:04.449Z,0.00
2018-01-04T02:55:04.414Z,0.00
2018-01-04T02:56:57.236Z,0.00
2018-01-04T02:57:57.213Z,0.00
2018-01-04T02:59:50.052Z,0.00
2018-01-04T03:00:50.011Z,0.00
2018-01-04T03:02:42.840Z,0.00
2018-01-04T03:03:42.813Z,0.00
2018-01-04T03:05:35.656Z,0.00
2018-01-04T03:06:35.614Z,0.00
2018-01-04T03:08:28.439Z,0.00
2018-01-04T03:09:28.418Z,0.00
2018-01-04T03:11:21.263Z,0.00
2018-01-04T03:12:21.213Z,0.00
2018-01-04T03:14:14.039Z,0.00
2018-01-04T03:15:14.011Z,0.00
2018-01-04T03:17:06.852Z,0.00
2018-01-04T03:18:06.813Z,0.00
2018-01-04T03:19:59.633Z,0.00
2018-01-04T03:20:59.616Z,0.00
2018-01-04T03:22:52.454Z,0.00
2018-01-04T03:23:52.413Z,0.00
2018-01-04T03:25:45.240Z,0.00
2018-01-04T03:26:45.215Z,0.00
2018-01-04T03:28:38.057Z,0.00
2018-01-04T03:29:38.018Z,0.00
2018-01-04T03:31:30.840Z,0.00
2018-01-04T03:32:30.818Z,0.00
2018-01-04T03:34:23.710Z,0.00
2018-01-04T03:35:23.617Z,0.00
2018-01-04T03:37:16.446Z,0.00
2018-01-04T03:38:16.418Z,0.00
2018-01-04T03:40:09.266Z,0.00
2018-01-04T03:41:09.220Z,0.00
2018-01-04T03:43:02.058Z,0.00
2018-01-04T03:44:02.027Z,0.00
2018-01-04T03:45:54.875Z,0.00
2018-01-04T03:46:54.826Z,0.00
2018-01-04T03:48:47.653Z,0.00
2018-01-04T03:49:47.628Z,0.00
2018-01-04T03:51:40.576Z,0.00
2018-01-04T03:52:40.428Z,0.00
2018-01-04T03:54:33.253Z,0.00
2018-01-04T03:55:33.370Z,0.00
2018-01-04T03:57:26.077Z,0.00
2018-01-04T03:58:26.027Z,0.00
2018-01-04T04:00:18.850Z,0.00
2018-01-04T04:01:18.828Z,0.00
2018-01-04T04:03:11.769Z,0.00
2018-01-04T04:04:11.648Z,0.00
2018-01-04T04:06:04.472Z,0.00
2018-01-04T04:07:04.448Z,0.00
2018-01-04T04:08:57.293Z,0.00
2018-01-04T04:09:57.253Z,0.00
2018-01-04T04:11:50.073Z,0.00
2018-01-04T04:12:50.051Z,0.00
2018-01-04T04:14:42.893Z,0.00
2018-01-04T04:15:42.852Z,0.00
2018-01-04T04:17:35.675Z,0.00
2018-01-04T04:18:35.654Z,0.00
2018-01-04T04:20:28.498Z,0.00
2018-01-04T04:21:28.455Z,0.00
2018-01-04T04:23:21.278Z,0.00
2018-01-04T04:24:21.257Z,0.00
2018-01-04T04:26:14.099Z,0.00
2018-01-04T04:27:14.061Z,0.00
2018-01-04T04:29:06.889Z,0.00
2018-01-04T04:30:06.869Z,0.00
2018-01-04T04:31:59.803Z,0.00
2018-01-04T04:32:59.666Z,0.00
2018-01-04T04:34:52.491Z,0.00
2018-01-04T04:35:52.471Z,0.00
2018-01-04T04:37:45.395Z,0.00
2018-01-04T04:38:45.269Z,0.00
2018-01-04T04:40:38.092Z,0.00
2018-01-04T04:41:38.072Z,0.00
2018-01-04T04:43:30.914Z,0.00
2018-01-04T04:44:30.872Z,0.00
2018-01-04T04:46:23.698Z,0.00
2018-01-04T04:47:23.678Z,0.00
2018-01-04T04:49:16.547Z,0.00
2018-01-04T04:50:16.503Z,0.00
2018-01-04T04:52:09.334Z,0.00
2018-01-04T04:53:09.302Z,0.00
2018-01-04T04:55:02.156Z,0.00
2018-01-04T04:56:02.102Z,0.00
2018-01-04T04:57:54.972Z,0.00
2018-01-04T04:58:54.899Z,0.00
2018-01-04T05:00:47.743Z,0.00
2018-01-04T05:01:47.702Z,0.00
2018-01-04T05:03:40.560Z,0.00
2018-01-04T05:04:40.504Z,0.00
2018-01-04T05:06:33.345Z,0.00
2018-01-04T05:07:33.305Z,0.00
2018-01-04T05:09:26.126Z,0.00
2018-01-04T05:10:26.104Z,0.00
2018-01-04T05:12:18.945Z,0.00
2018-01-04T05:13:18.905Z,0.00
2018-01-04T05:15:11.730Z,0.00
2018-01-04T05:16:11.705Z,0.00
2018-01-04T05:18:04.555Z,4.00
2018-01-04T05:19:04.506Z,0.00
2018-01-04T05:20:57.330Z,0.00
2018-01-04T05:21:57.308Z,0.00
2018-01-04T05:23:50.147Z,0.00
2018-01-04T05:24:50.105Z,0.00
2018-01-04T05:26:42.928Z,0.00
2018-01-04T05:27:42.906Z,0.00
2018-01-04T05:29:35.745Z,0.00
2018-01-04T05:30:35.706Z,0.00
2018-01-04T05:32:28.530Z,0.00
2018-01-04T05:33:28.506Z,0.00
2018-01-04T05:35:21.355Z,0.00
2018-01-04T05:36:21.309Z,0.00
2018-01-04T05:38:14.133Z,0.00
2018-01-04T05:39:14.109Z,0.00
2018-01-04T05:41:06.946Z,0.00
2018-01-04T05:42:06.909Z,0.00
2018-01-04T05:43:59.732Z,0.00
2018-01-04T05:44:59.706Z,0.00
2018-01-04T05:46:52.556Z,0.00
2018-01-04T05:47:52.507Z,0.00
2018-01-04T05:49:45.329Z,0.00
2018-01-04T05:50:45.310Z,0.00
2018-01-04T05:52:38.151Z,0.00
2018-01-04T05:53:38.109Z,0.00
2018-01-04T05:55:30.938Z,0.00
2018-01-04T05:56:30.915Z,0.00
2018-01-04T05:58:23.751Z,0.00
2018-01-04T05:59:23.711Z,0.00
2018-01-04T06:01:16.534Z,0.00
2018-01-04T06:02:16.511Z,0.00
2018-01-04T06:04:09.351Z,0.00
2018-01-04T06:05:09.311Z,0.00
2018-01-04T06:07:02.192Z,0.00
2018-01-04T06:08:02.112Z,0.00
2018-01-04T06:09:55.025Z,0.00
2018-01-04T06:10:54.907Z,0.00
2018-01-04T06:12:47.734Z,0.00
2018-01-04T06:13:47.710Z,0.00
2018-01-04T06:15:40.560Z,0.00
2018-01-04T06:16:40.512Z,0.00
2018-01-04T06:18:33.344Z,0.00
2018-01-04T06:19:33.322Z,0.00
2018-01-04T06:21:26.169Z,0.00
2018-01-04T06:22:26.123Z,0.00
2018-01-04T06:24:18.949Z,0.00
2018-01-04T06:25:18.926Z,0.00
2018-01-04T06:27:11.778Z,0.00
2018-01-04T06:28:11.730Z,0.00
2018-01-04T06:30:04.655Z,0.00
2018-01-04T06:31:04.527Z,0.00
2018-01-04T06:32:57.368Z,0.00
2018-01-04T06:33:57.329Z,0.00
2018-01-04T06:35:50.155Z,0.00
2018-01-04T06:36:50.132Z,0.00
2018-01-04T06:38:42.984Z,0.00
2018-01-04T06:39:42.932Z,0.00
2018-01-04T06:41:35.762Z,0.00
2018-01-04T06:42:35.738Z,0.00
2018-01-04T06:44:28.675Z,0.00
2018-01-04T06:45:28.538Z,0.00
2018-01-04T06:47:21.371Z,0.00
2018-01-04T06:48:21.344Z,0.00
2018-01-04T06:50:14.183Z,0.00
2018-01-04T06:51:14.149Z,0.00
2018-01-04T06:53:06.973Z,4.00
2018-01-04T06:54:06.948Z,4.00
2018-01-04T06:55:59.799Z,4.00
2018-01-04T06:56:59.755Z,4.00
2018-01-04T06:58:52.581Z,4.00
2018-01-04T06:59:52.555Z,4.00
2018-01-04T07:01:45.398Z,4.00
2018-01-04T07:02:45.359Z,4.00
2018-01-04T07:04:38.187Z,4.00
2018-01-04T07:05:38.162Z,4.00
2018-01-04T07:07:31.006Z,8.00
2018-01-04T07:08:30.966Z,4.00
2018-01-04T07:10:23.792Z,4.00
2018-01-04T07:11:23.766Z,8.00
2018-01-04T07:13:16.617Z,8.00
2018-01-04T07:14:16.569Z,8.00
2018-01-04T07:16:09.395Z,12.00
2018-01-04T07:17:09.399Z,12.00
2018-01-04T07:19:02.213Z,16.00
2018-01-04T07:20:02.175Z,16.00
2018-01-04T07:21:55.002Z,16.00
2018-01-04T07:22:54.980Z,20.00
2018-01-04T07:24:47.822Z,24.00
2018-01-04T07:25:47.784Z,24.00
2018-01-04T07:27:40.614Z,24.00
2018-01-04T07:28:40.583Z,28.00
2018-01-04T07:30:33.431Z,32.00
2018-01-04T07:31:33.386Z,36.00
2018-01-04T07:33:26.220Z,36.00
2018-01-04T07:34:26.185Z,36.00
2018-01-04T07:36:19.030Z,36.00
2018-01-04T07:37:18.994Z,36.00
2018-01-04T07:39:11.815Z,44.00
2018-01-04T07:40:11.793Z,48.00
2018-01-04T07:42:04.681Z,60.00
2018-01-04T07:43:04.593Z,64.00
2018-01-04T07:44:57.417Z,52.00
2018-01-04T07:45:57.393Z,48.00
2018-01-04T07:47:50.246Z,44.00
2018-01-04T07:48:50.197Z,44.00
2018-01-04T07:50:43.022Z,52.00
2018-01-04T07:51:42.996Z,60.00
2018-01-04T07:53:35.839Z,68.00
2018-01-04T07:54:35.797Z,64.00
2018-01-04T07:56:28.633Z,88.00
2018-01-04T07:57:28.615Z,108.00
2018-01-04T07:59:21.454Z,124.00
2018-01-04T08:00:21.414Z,120.00
2018-01-04T08:02:14.239Z,104.00
2018-01-04T08:03:14.212Z,96.00
2018-01-04T08:05:07.058Z,84.00
2018-01-04T08:06:07.017Z,88.00
2018-01-04T08:07:59.844Z,100.00
2018-01-04T08:08:59.822Z,108.00
2018-01-04T08:10:52.662Z,148.00
2018-01-04T08:11:52.622Z,172.00
2018-01-04T08:13:45.446Z,192.00
2018-01-04T08:14:45.424Z,196.00
2018-01-04T08:16:38.288Z,220.00
2018-01-04T08:17:38.230Z,208.00
2018-01-04T08:19:31.064Z,184.00
2018-01-04T08:20:31.039Z,168.00
2018-01-04T08:22:23.885Z,152.00
2018-01-04T08:23:23.842Z,148.00
2018-01-04T08:25:16.671Z,160.00
2018-01-04T08:26:16.650Z,164.00
2018-01-04T08:28:09.496Z,172.00
2018-01-04T08:29:09.470Z,180.00
2018-01-04T08:31:02.290Z,192.00
2018-01-04T08:32:02.266Z,196.00
2018-01-04T08:33:55.109Z,208.00
2018-01-04T08:34:55.069Z,216.00
2018-01-04T08:36:47.898Z,240.00
2018-01-04T08:37:47.871Z,268.00
2018-01-04T08:39:40.723Z,312.00
2018-01-04T08:40:40.675Z,344.00
2018-01-04T08:42:33.502Z,328.00
2018-01-04T08:43:33.481Z,336.00
2018-01-04T08:45:26.323Z,352.00
2018-01-04T08:46:26.284Z,360.00
2018-01-04T08:48:19.111Z,348.00
2018-01-04T08:49:19.087Z,336.00
2018-01-04T08:51:11.935Z,336.00
2018-01-04T08:52:11.891Z,320.00
2018-01-04T08:54:04.719Z,292.00
2018-01-04T08:55:04.696Z,284.00
2018-01-04T08:56:57.536Z,260.00
2018-01-04T08:57:57.499Z,260.00
2018-01-04T08:59:50.325Z,272.00
2018-01-04T09:00:50.301Z,276.00
2018-01-04T09:02:43.152Z,288.00
2018-01-04T09:03:43.125Z,296.00
2018-01-04T09:05:35.941Z,272.00
2018-01-04T09:06:35.922Z,252.00
2018-01-04T09:08:28.761Z,252.00
2018-01-04T09:09:28.720Z,260.00
2018-01-04T09:11:21.553Z,252.00
2018-01-04T09:12:21.530Z,240.00
2018-01-04T09:14:14.380Z,228.00
2018-01-04T09:15:14.338Z,232.00
2018-01-04T09:17:07.190Z,244.00
2018-01-04T09:18:07.182Z,252.00
2018-01-04T09:20:00.025Z,272.00
2018-01-04T09:20:59.979Z,280.00
2018-01-04T09:22:52.811Z,296.00
2018-01-04T09:23:52.787Z,304.00
2018-01-04T09:25:45.631Z,304.00
2018-01-04T09:26:45.591Z,308.00
2018-01-04T09:28:38.423Z,332.00
2018-01-04T09:29:38.399Z,348.00
2018-01-04T09:31:31.247Z,360.00
2018-01-04T09:32:31.209Z,364.00
2018-01-04T09:34:24.036Z,388.00
2018-01-04T09:35:24.017Z,396.00
2018-01-04T09:37:16.860Z,452.00
2018-01-04T09:38:16.822Z,484.00
2018-01-04T09:40:09.652Z,548.00
2018-01-04T09:41:09.632Z,552.00
2018-01-04T09:43:02.476Z,520.00
2018-01-04T09:44:02.440Z,556.00
2018-01-04T09:45:55.270Z,644.00
2018-01-04T09:46:55.246Z,656.00
2018-01-04T09:48:48.089Z,676.00
2018-01-04T09:49:48.050Z,680.00
2018-01-04T09:51:40.880Z,744.00
2018-01-04T09:52:40.855Z,812.00
2018-01-04T09:54:33.703Z,880.00
2018-01-04T09:55:33.662Z,840.00
2018-01-04T09:57:26.492Z,800.00
2018-01-04T09:58:26.466Z,776.00
2018-01-04T10:00:19.314Z,716.00
2018-01-04T10:01:19.275Z,724.00
2018-01-04T10:03:12.100Z,748.00
2018-01-04T10:04:12.078Z,784.00
2018-01-04T10:06:04.934Z,844.00
2018-01-04T10:07:04.890Z,828.00
2018-01-04T10:08:57.720Z,768.00
2018-01-04T10:09:57.699Z,788.00
2018-01-04T10:11:50.553Z,804.00
2018-01-04T10:12:50.504Z,848.00
2018-01-04T10:14:43.338Z,912.00
2018-01-04T10:15:43.313Z,908.00
2018-01-04T10:17:36.226Z,872.00
2018-01-04T10:18:36.120Z,836.00
2018-01-04T10:20:28.947Z,948.00
2018-01-04T10:21:28.926Z,952.00
2018-01-04T10:23:21.769Z,796.00
2018-01-04T10:24:21.736Z,764.00
2018-01-04T10:26:14.561Z,724.00
2018-01-04T10:27:14.540Z,736.00
2018-01-04T10:29:07.388Z,780.00
2018-01-04T10:30:07.347Z,768.00
2018-01-04T10:32:00.180Z,776.00
2018-01-04T10:33:00.160Z,796.00
2018-01-04T10:34:53.009Z,1004.00
2018-01-04T10:35:52.970Z,1080.00
2018-01-04T10:37:45.802Z,1088.00
2018-01-04T10:38:45.780Z,1012.00
2018-01-04T10:40:38.626Z,944.00
2018-01-04T10:41:38.589Z,1008.00
2018-01-04T10:43:31.414Z,1056.00
2018-01-04T10:44:31.396Z,1052.00
2018-01-04T10:46:24.245Z,1140.00
2018-01-04T10:47:24.207Z,1208.00
2018-01-04T10:49:17.041Z,1280.00
2018-01-04T10:50:17.017Z,1368.00
2018-01-04T10:52:09.862Z,1412.00
2018-01-04T10:53:09.829Z,1408.00
2018-01-04T10:55:02.659Z,1272.00
2018-01-04T10:56:02.637Z,1112.00
2018-01-04T10:57:55.482Z,1128.00
2018-01-04T10:58:55.450Z,1132.00
2018-01-04T11:00:48.280Z,1144.00
2018-01-04T11:01:48.257Z,1152.00
2018-01-04T11:03:41.104Z,1008.00
2018-01-04T11:04:41.071Z,920.00
2018-01-04T11:06:33.925Z,856.00
2018-01-04T11:07:33.878Z,828.00
2018-01-04T11:09:26.727Z,840.00
2018-01-04T11:10:26.693Z,800.00
2018-01-04T11:12:19.529Z,900.00
2018-01-04T11:13:19.499Z,876.00
2018-01-04T11:15:12.351Z,640.00
2018-01-04T11:16:12.309Z,592.00
2018-01-04T11:18:05.145Z,544.00
2018-01-04T11:19:05.120Z,592.00
2018-01-04T11:20:57.977Z,592.00
2018-01-04T11:21:57.934Z,768.00
2018-01-04T11:23:50.767Z,628.00
2018-01-04T11:24:50.745Z,528.00
2018-01-04T11:26:43.591Z,428.00
2018-01-04T11:27:43.554Z,576.00
2018-01-04T11:29:36.389Z,536.00
2018-01-04T11:30:36.368Z,528.00
2018-01-04T11:32:29.231Z,556.00
2018-01-04T11:33:29.183Z,500.00
2018-01-04T11:35:22.015Z,628.00
2018-01-04T11:36:21.997Z,668.00
2018-01-04T11:38:14.843Z,544.00
2018-01-04T11:39:14.808Z,572.00
2018-01-04T11:41:07.638Z,560.00
2018-01-04T11:42:07.617Z,512.00
2018-01-04T11:44:00.472Z,548.00
2018-01-04T11:45:00.423Z,496.00
2018-01-04T11:46:53.256Z,652.00
2018-01-04T11:47:53.235Z,704.00
2018-01-04T11:49:46.118Z,712.00
2018-01-04T11:50:46.050Z,812.00
2018-01-04T11:52:38.879Z,464.00
2018-01-04T11:53:38.856Z,464.00
2018-01-04T11:55:31.708Z,492.00
2018-01-04T11:56:31.669Z,560.00
2018-01-04T11:58:24.496Z,460.00
2018-01-04T11:59:24.472Z,432.00
2018-01-04T12:01:17.329Z,460.00
2018-01-04T12:02:17.282Z,464.00
2018-01-04T12:04:10.115Z,388.00
2018-01-04T12:05:10.092Z,372.00
2018-01-04T12:07:02.950Z,464.00
2018-01-04T12:08:02.908Z,504.00
2018-01-04T12:09:55.740Z,456.00
2018-01-04T12:10:55.725Z,444.00
2018-01-04T12:12:48.582Z,460.00
2018-01-04T12:13:48.535Z,488.00
2018-01-04T12:15:41.370Z,504.00
2018-01-04T12:16:41.354Z,584.00
2018-01-04T12:18:34.211Z,552.00
2018-01-04T12:19:34.164Z,476.00
2018-01-04T12:21:26.994Z,508.00
2018-01-04T12:22:26.975Z,480.00
2018-01-04T12:24:19.829Z,572.00
2018-01-04T12:25:19.783Z,536.00
2018-01-04T12:27:12.635Z,492.00
2018-01-04T12:28:12.610Z,564.00
2018-01-04T12:30:05.456Z,512.00
2018-01-04T12:31:05.419Z,464.00
2018-01-04T12:32:58.254Z,476.00
2018-01-04T12:33:58.232Z,488.00
2018-01-04T12:35:51.085Z,528.00
2018-01-04T12:36:51.045Z,500.00
2018-01-04T12:38:43.878Z,452.00
2018-01-04T12:39:43.856Z,468.00
2018-01-04T12:41:36.700Z,536.00
2018-01-04T12:42:36.669Z,456.00
2018-01-04T12:44:29.502Z,404.00
2018-01-04T12:45:29.481Z,444.00
2018-01-04T12:47:22.336Z,492.00
2018-01-04T12:48:22.299Z,444.00
2018-01-04T12:50:15.135Z,536.00
2018-01-04T12:51:15.108Z,608.00
2018-01-04T12:53:07.957Z,612.00
2018-01-04T12:54:07.920Z,620.00
2018-01-04T12:56:00.755Z,496.00
2018-01-04T12:57:00.738Z,404.00
2018-01-04T12:58:53.589Z,496.00
2018-01-04T12:59:53.550Z,576.00
2018-01-04T13:01:46.382Z,500.00
2018-01-04T13:02:46.367Z,536.00
2018-01-04T13:04:39.211Z,552.00
2018-01-04T13:05:39.213Z,644.00
2018-01-04T13:07:32.007Z,528.00
2018-01-04T13:08:31.992Z,472.00
2018-01-04T13:10:24.841Z,460.00
2018-01-04T13:11:24.801Z,332.00
2018-01-04T13:13:17.635Z,348.00
2018-01-04T13:14:17.616Z,328.00
2018-01-04T13:16:10.470Z,412.00
2018-01-04T13:17:10.435Z,440.00
2018-01-04T13:19:03.273Z,480.00
2018-01-04T13:20:03.256Z,400.00
2018-01-04T13:21:56.107Z,420.00
2018-01-04T13:22:56.065Z,388.00
2018-01-04T13:24:48.897Z,316.00
2018-01-04T13:25:48.879Z,396.00
2018-01-04T13:27:41.728Z,440.00
2018-01-04T13:28:41.692Z,420.00
2018-01-04T13:30:34.528Z,492.00
2018-01-04T13:31:34.501Z,496.00
2018-01-04T13:33:27.344Z,500.00
2018-01-04T13:34:27.316Z,508.00
2018-01-04T13:36:20.155Z,532.00
2018-01-04T13:37:20.136Z,496.00
2018-01-04T13:39:12.984Z,496.00
2018-01-04T13:40:12.950Z,528.00
2018-01-04T13:42:05.787Z,508.00
2018-01-04T13:43:05.765Z,472.00
2018-01-04T13:44:58.611Z,492.00
2018-01-04T13:45:58.577Z,424.00
2018-01-04T13:47:51.407Z,400.00
2018-01-04T13:48:51.389Z,440.00
2018-01-04T13:50:44.235Z,364.00
2018-01-04T13:51:44.194Z,420.00
2018-01-04T13:53:37.036Z,360.00
2018-01-04T13:54:37.011Z,364.00
2018-01-04T13:56:29.858Z,352.00
2018-01-04T13:57:29.857Z,304.00
2018-01-04T13:59:22.653Z,320.00
2018-01-04T14:00:22.635Z,332.00
2018-01-04T14:02:15.484Z,360.00
2018-01-04T14:03:15.446Z,340.00
2018-01-04T14:05:08.282Z,380.00
2018-01-04T14:06:08.259Z,340.00
2018-01-04T14:08:01.108Z,312.00
2018-01-04T14:09:01.073Z,300.00
2018-01-04T14:10:53.903Z,332.00
2018-01-04T14:11:53.882Z,344.00
2018-01-04T14:13:46.733Z,280.00
2018-01-04T14:14:46.700Z,292.00
2018-01-04T14:16:39.529Z,272.00
2018-01-04T14:17:39.507Z,296.00
2018-01-04T14:19:32.354Z,336.00
2018-01-04T14:20:32.324Z,192.00
2018-01-04T14:22:25.156Z,212.00
2018-01-04T14:23:25.133Z,284.00
2018-01-04T14:25:17.984Z,192.00
2018-01-04T14:26:17.951Z,216.00
2018-01-04T14:28:10.792Z,204.00
2018-01-04T14:29:10.767Z,268.00
2018-01-04T14:31:03.619Z,288.00
2018-01-04T14:32:03.608Z,264.00
2018-01-04T14:33:56.409Z,204.00
2018-01-04T14:34:56.393Z,160.00
2018-01-04T14:36:49.244Z,156.00
2018-01-04T14:37:49.260Z,148.00
2018-01-04T14:39:42.046Z,124.00
2018-01-04T14:40:42.016Z,160.00
2018-01-04T14:42:34.905Z,116.00
2018-01-04T14:43:34.832Z,164.00
2018-01-04T14:45:27.665Z,88.00
2018-01-04T14:46:27.638Z,92.00
2018-01-04T14:48:20.487Z,84.00
2018-01-04T14:49:20.454Z,100.00
2018-01-04T14:51:13.287Z,96.00
2018-01-04T14:52:13.265Z,124.00
2018-01-04T14:54:06.116Z,104.00
2018-01-04T14:55:06.082Z,100.00
2018-01-04T14:56:58.914Z,84.00
2018-01-04T14:57:58.893Z,72.00
2018-01-04T14:59:51.738Z,80.00
2018-01-04T15:00:51.705Z,64.00
2018-01-04T15:02:44.616Z,52.00
2018-01-04T15:03:44.556Z,64.00
2018-01-04T15:05:37.364Z,56.00
2018-01-04T15:06:37.336Z,60.00
2018-01-04T15:08:30.167Z,48.00
2018-01-04T15:09:30.145Z,40.00
2018-01-04T15:11:22.997Z,40.00
2018-01-04T15:12:22.956Z,40.00
2018-01-04T15:14:15.792Z,36.00
2018-01-04T15:15:15.773Z,36.00
2018-01-04T15:17:08.627Z,28.00
2018-01-04T15:18:08.586Z,28.00
2018-01-04T15:20:01.417Z,24.00
2018-01-04T15:21:01.396Z,24.00
2018-01-04T15:22:54.325Z,24.00
2018-01-04T15:23:54.212Z,24.00
2018-01-04T15:25:47.047Z,20.00
2018-01-04T15:26:47.042Z,20.00
2018-01-04T15:28:39.880Z,16.00
2018-01-04T15:29:39.842Z,16.00
2018-01-04T15:31:32.675Z,12.00
2018-01-04T15:32:32.694Z,12.00
2018-01-04T15:34:25.515Z,12.00
2018-01-04T15:35:25.470Z,16.00
2018-01-04T15:37:18.309Z,12.00
2018-01-04T15:38:18.296Z,12.00
2018-01-04T15:40:11.140Z,8.00
2018-01-04T15:41:11.104Z,12.00
2018-01-04T15:43:03.937Z,12.00
2018-01-04T15:44:03.918Z,8.00
2018-01-04T15:45:56.766Z,8.00
2018-01-04T15:46:56.736Z,8.00
2018-01-04T15:48:49.572Z,8.00
2018-01-04T15:49:49.550Z,8.00
2018-01-04T15:51:42.406Z,4.00
2018-01-04T15:52:42.365Z,4.00
2018-01-04T15:54:35.203Z,8.00
2018-01-04T15:55:35.183Z,4.00
2018-01-04T15:57:28.036Z,4.00
2018-01-04T15:58:27.997Z,4.00
2018-01-04T16:00:20.828Z,4.00
2018-01-04T16:01:20.808Z,4.00
2018-01-04T16:03:13.659Z,4.00
2018-01-04T16:04:13.627Z,4.00
2018-01-04T16:06:06.469Z,0.00
2018-01-04T16:07:06.442Z,0.00
2018-01-04T16:08:59.289Z,0.00
2018-01-04T16:09:59.256Z,0.00
2018-01-04T16:11:52.094Z,0.00
2018-01-04T16:12:52.075Z,0.00
2018-01-04T16:14:44.929Z,0.00
2018-01-04T16:15:44.888Z,0.00
2018-01-04T16:17:37.720Z,0.00
2018-01-04T16:18:37.698Z,0.00
2018-01-04T16:20:30.551Z,0.00
2018-01-04T16:21:30.512Z,0.00
2018-01-04T16:23:23.344Z,0.00
2018-01-04T16:24:23.323Z,0.00
2018-01-04T16:26:16.180Z,0.00
2018-01-04T16:27:16.144Z,0.00
2018-01-04T16:29:08.979Z,0.00
2018-01-04T16:30:08.960Z,0.00
2018-01-04T16:32:01.814Z,0.00
2018-01-04T16:33:01.776Z,0.00
2018-01-04T16:34:54.612Z,0.00
2018-01-04T16:35:54.592Z,0.00
2018-01-04T16:37:47.443Z,0.00
2018-01-04T16:38:47.408Z,0.00
2018-01-04T16:40:40.245Z,0.00
2018-01-04T16:41:40.228Z,0.00
2018-01-04T16:43:33.079Z,0.00
2018-01-04T16:44:33.045Z,0.00
2018-01-04T16:46:25.882Z,0.00
2018-01-04T16:47:25.856Z,0.00
2018-01-04T16:49:18.704Z,0.00
2018-01-04T16:50:18.667Z,0.00
2018-01-04T16:52:11.511Z,0.00
2018-01-04T16:53:11.486Z,0.00
2018-01-04T16:55:04.336Z,0.00
2018-01-04T16:56:04.300Z,0.00
2018-01-04T16:57:57.134Z,0.00
2018-01-04T16:58:57.119Z,0.00
2018-01-04T17:00:49.962Z,0.00
2018-01-04T17:01:49.929Z,0.00
2018-01-04T17:03:42.764Z,0.00
2018-01-04T17:04:42.763Z,0.00
2018-01-04T17:06:35.583Z,0.00
2018-01-04T17:07:35.551Z,0.00
2018-01-04T17:09:28.382Z,0.00
2018-01-04T17:10:28.364Z,0.00
2018-01-04T17:12:21.213Z,0.00
2018-01-04T17:13:21.176Z,0.00
2018-01-04T17:15:14.013Z,0.00
2018-01-04T17:16:13.991Z,0.00
2018-01-04T17:18:06.841Z,0.00
2018-01-04T17:19:06.818Z,0.00
2018-01-04T17:20:59.637Z,0.00
2018-01-04T17:21:59.617Z,0.00
2018-01-04T17:23:52.465Z,0.00
2018-01-04T17:24:52.432Z,0.00
2018-01-04T17:26:45.285Z,0.00
2018-01-04T17:27:45.242Z,0.00
2018-01-04T17:29:38.176Z,0.00
2018-01-04T17:30:38.128Z,0.00
2018-01-04T17:32:30.962Z,0.00
2018-01-04T17:33:30.939Z,0.00
2018-01-04T17:35:23.806Z,0.00
2018-01-04T17:36:23.764Z,0.00
2018-01-04T17:38:16.599Z,0.00
2018-01-04T17:39:16.581Z,0.00
2018-01-04T17:41:09.428Z,0.00
2018-01-04T17:42:09.396Z,0.00
2018-01-04T17:44:02.236Z,0.00
2018-01-04T17:45:02.218Z,0.00
2018-01-04T17:46:55.064Z,0.00
2018-01-04T17:47:55.032Z,0.00
2018-01-04T17:49:47.867Z,0.00
2018-01-04T17:50:47.842Z,0.00
2018-01-04T17:52:40.698Z,0.00
2018-01-04T17:53:40.776Z,0.00
2018-01-04T17:55:33.498Z,0.00
2018-01-04T17:56:33.481Z,0.00
2018-01-04T17:58:26.336Z,0.00
2018-01-04T17:59:26.299Z,0.00
2018-01-04T18:01:19.140Z,0.00
2018-01-04T18:02:19.120Z,0.00
2018-01-04T18:04:11.970Z,0.00
2018-01-04T18:05:11.937Z,0.00
2018-01-04T18:07:04.773Z,0.00
2018-01-04T18:08:04.750Z,0.00
2018-01-04T18:09:57.604Z,0.00
2018-01-04T18:10:57.569Z,0.00
2018-01-04T18:12:50.465Z,0.00
2018-01-04T18:13:50.394Z,0.00
2018-01-04T18:15:43.237Z,0.00
2018-01-04T18:16:43.197Z,0.00
2018-01-04T18:18:36.031Z,0.00
2018-01-04T18:19:36.011Z,0.00
2018-01-04T18:21:28.858Z,0.00
2018-01-04T18:22:28.822Z,0.00
2018-01-04T18:24:21.655Z,4.00
2018-01-04T18:25:21.629Z,4.00
2018-01-04T18:27:14.483Z,4.00
2018-01-04T18:28:14.446Z,4.00
2018-01-04T18:30:07.275Z,4.00
2018-01-04T18:31:07.251Z,4.00
2018-01-04T18:33:00.104Z,4.00
2018-01-04T18:34:00.064Z,4.00
2018-01-04T18:35:52.899Z,4.00
2018-01-04T18:36:52.877Z,4.00
2018-01-04T18:38:45.741Z,4.00